Atlantic Beach, New York
Current Conditions -  °F | °C
As of 6:51 AM on Monday 24 Nov 2014 (Local Time) from KJFK Reporting Station
Light Rain Light Rain  
Wind Chill: 60°   Ceiling: 700
Heat Index: 60°   Visibility: 4mi
Dew Point: 58°   Wind: 24mph
Humidity: 93%   Direction: 200°SSW
Pressure: 29.75"   Gusts: 33mph
Location:  40.59°N, 73.73°W
Report Text: KJFK 241151Z 20021G29KT 4SM -RA BR OVC007 16/14 A2975 RMK AO2 PK WND 17038/1125 RAE31B48 SLP074 P0006 60039 70039 T01560144 10167 20133 55015 $
Loading
Personal Weather Stations






























Interactive Weather Map New forecast layout! Learn more

10-Day Weather Forecast

Advertisements
Track Severe Weather on mobile